createdAt,value
2019-04-06T00:02:10.310Z,53.83
2019-04-06T00:04:42.966Z,56.27
2019-04-06T00:07:14.920Z,58.30
2019-04-06T00:09:46.966Z,55.07
2019-04-06T00:12:18.922Z,55.43
2019-04-06T00:14:51.322Z,58.13
2019-04-06T00:17:23.534Z,61.77
2019-04-06T00:19:55.561Z,64.57
2019-04-06T00:22:27.582Z,65.83
2019-04-06T00:24:59.581Z,65.50
2019-04-06T00:27:31.609Z,68.10
2019-04-06T00:30:04.774Z,61.90
2019-04-06T00:32:41.792Z,58.60
2019-04-06T00:35:14.163Z,58.90
2019-04-06T00:37:46.161Z,58.23
2019-04-06T00:40:18.262Z,67.27
2019-04-06T00:42:50.543Z,65.67
2019-04-06T00:45:24.204Z,67.50
2019-04-06T00:47:56.304Z,71.37
2019-04-06T00:50:28.352Z,67.40
2019-04-06T00:53:00.489Z,70.00
2019-04-06T00:55:32.528Z,71.37
2019-04-06T00:58:04.558Z,67.47
2019-04-06T01:00:36.580Z,61.57
2019-04-06T01:03:08.843Z,61.30
2019-04-06T01:05:41.225Z,57.03
2019-04-06T01:08:13.203Z,56.57
2019-04-06T01:10:45.158Z,59.07
2019-04-06T01:13:17.295Z,55.40
2019-04-06T01:15:49.332Z,56.90
2019-04-06T01:18:21.692Z,48.50
2019-04-06T01:20:53.684Z,50.17
2019-04-06T01:23:25.713Z,56.20
2019-04-06T01:26:06.605Z,55.60
2019-04-06T01:28:31.780Z,56.10
2019-04-06T01:31:04.081Z,64.63
2019-04-06T01:33:36.203Z,56.57
2019-04-06T01:36:08.256Z,60.37
2019-04-06T01:38:40.479Z,59.20
2019-04-06T01:41:12.487Z,60.40
2019-04-06T01:43:44.434Z,62.83
2019-04-06T01:46:16.675Z,61.23
2019-04-06T01:48:48.625Z,60.00
2019-04-06T01:51:20.613Z,60.93
2019-04-06T01:53:52.565Z,59.33
2019-04-06T01:56:25.540Z,54.43
2019-04-06T01:58:59.204Z,59.73
2019-04-06T02:01:32.838Z,60.03
2019-04-06T02:04:04.798Z,58.13
2019-04-06T02:06:36.826Z,59.77
2019-04-06T02:09:08.829Z,53.40
2019-04-06T02:11:41.152Z,48.33
2019-04-06T02:14:13.109Z,49.03
2019-04-06T02:16:45.413Z,49.10
2019-04-06T02:19:17.372Z,48.00
2019-04-06T02:21:49.369Z,49.47
2019-04-06T02:24:21.442Z,50.10
2019-04-06T02:26:53.424Z,49.63
2019-04-06T02:29:25.602Z,48.23
2019-04-06T02:32:02.149Z,48.90
2019-04-06T02:34:41.694Z,48.57
2019-04-06T02:37:24.134Z,48.27
2019-04-06T02:40:00.518Z,47.13
2019-04-06T02:42:45.912Z,47.97
2019-04-06T02:45:17.967Z,46.30
2019-04-06T02:47:49.943Z,47.47
2019-04-06T02:50:21.969Z,45.63
2019-04-06T02:52:54.066Z,45.83
2019-04-06T02:55:26.123Z,43.47
2019-04-06T02:57:58.170Z,43.53
2019-04-06T03:00:31.524Z,43.37
2019-04-06T03:03:03.726Z,45.13
2019-04-06T03:05:35.759Z,46.17
2019-04-06T03:08:07.998Z,45.57
2019-04-06T03:10:40.014Z,43.27
2019-04-06T03:13:12.211Z,44.03
2019-04-06T03:15:44.682Z,44.70
2019-04-06T03:18:16.618Z,43.20
2019-04-06T03:20:48.642Z,42.90
2019-04-06T03:23:24.039Z,41.53
2019-04-06T03:25:54.438Z,43.23
2019-04-06T03:28:26.465Z,44.77
2019-04-06T03:30:59.042Z,42.50
2019-04-06T03:33:30.948Z,43.07
2019-04-06T03:36:03.389Z,43.47
2019-04-06T03:38:35.368Z,43.23
2019-04-06T03:41:07.600Z,44.57
2019-04-06T03:43:39.603Z,44.77
2019-04-06T03:46:11.554Z,40.93
2019-04-06T03:48:43.522Z,38.13
2019-04-06T03:51:15.477Z,41.50
2019-04-06T03:53:47.626Z,42.40
2019-04-06T03:56:19.559Z,40.60
2019-04-06T03:58:52.350Z,41.07
2019-04-06T04:01:24.701Z,39.90
2019-04-06T04:03:56.662Z,41.63
2019-04-06T04:06:28.633Z,40.40
2019-04-06T04:09:00.767Z,41.80
2019-04-06T04:11:32.890Z,41.33
2019-04-06T04:14:04.914Z,42.13
2019-04-06T04:16:36.874Z,45.00
2019-04-06T04:19:09.139Z,41.30
2019-04-06T04:21:41.085Z,40.20
2019-04-06T04:24:13.030Z,42.40
2019-04-06T04:26:45.009Z,41.83
2019-04-06T04:29:16.954Z,42.47
2019-04-06T04:31:49.150Z,42.83
2019-04-06T04:34:21.172Z,40.57
2019-04-06T04:36:53.390Z,41.67
2019-04-06T04:39:25.335Z,41.97
2019-04-06T04:41:57.290Z,41.00
2019-04-06T04:44:29.365Z,40.63
2019-04-06T04:47:01.298Z,39.97
2019-04-06T04:49:33.342Z,39.67
2019-04-06T04:52:05.291Z,39.30
2019-04-06T04:54:37.281Z,39.43
2019-04-06T04:57:09.230Z,38.70
2019-04-06T04:59:41.203Z,40.20
2019-04-06T05:02:13.173Z,38.10
2019-04-06T05:04:45.121Z,39.80
2019-04-06T05:07:17.083Z,37.80
2019-04-06T05:09:49.048Z,37.77
2019-04-06T05:12:21.005Z,37.20
2019-04-06T05:15:02.741Z,37.40
2019-04-06T05:17:34.781Z,36.63
2019-04-06T05:20:09.813Z,37.30
2019-04-06T05:22:41.852Z,35.37
2019-04-06T05:25:14.307Z,38.47
2019-04-06T05:27:51.708Z,35.93
2019-04-06T05:30:20.020Z,36.77
2019-04-06T05:32:52.247Z,36.90
2019-04-06T05:35:24.191Z,36.83
2019-04-06T05:37:56.521Z,37.73
2019-04-06T05:40:28.502Z,36.57
2019-04-06T05:43:00.469Z,37.73
2019-04-06T05:45:32.642Z,39.23
2019-04-06T05:48:04.649Z,38.27
2019-04-06T05:50:36.676Z,38.07
2019-04-06T05:53:08.641Z,37.90
2019-04-06T05:55:40.641Z,36.93
2019-04-06T05:58:12.600Z,37.03
2019-04-06T06:00:44.949Z,37.67
2019-04-06T06:03:17.203Z,35.97
2019-04-06T06:05:49.161Z,35.73
2019-04-06T06:08:21.190Z,35.00
2019-04-06T06:10:53.157Z,34.50
2019-04-06T06:13:25.116Z,34.33
2019-04-06T06:15:57.090Z,34.83
2019-04-06T06:18:29.121Z,32.03
2019-04-06T06:21:01.107Z,31.77
2019-04-06T06:23:33.186Z,32.83
2019-04-06T06:26:05.198Z,31.37
2019-04-06T06:28:37.141Z,30.30
2019-04-06T06:31:09.108Z,31.70
2019-04-06T06:33:41.234Z,30.47
2019-04-06T06:36:13.198Z,30.23
2019-04-06T06:38:45.161Z,29.63
2019-04-06T06:41:17.113Z,30.50
2019-04-06T06:43:49.195Z,30.17
2019-04-06T06:46:21.172Z,29.87
2019-04-06T06:48:53.138Z,29.73
2019-04-06T06:51:25.235Z,30.00
2019-04-06T06:53:57.287Z,28.77
2019-04-06T06:56:29.239Z,28.77
2019-04-06T06:59:01.213Z,28.67
2019-04-06T07:01:33.213Z,30.47
2019-04-06T07:04:07.059Z,28.07
2019-04-06T07:06:39.038Z,30.00
2019-04-06T07:09:11.114Z,29.47
2019-04-06T07:11:43.220Z,29.33
2019-04-06T07:14:15.223Z,28.67
2019-04-06T07:16:47.279Z,29.30
2019-04-06T07:19:19.599Z,29.30
2019-04-06T07:21:52.196Z,29.47
2019-04-06T07:24:24.196Z,30.00
2019-04-06T07:26:56.136Z,28.20
2019-04-06T07:29:28.115Z,29.73
2019-04-06T07:32:00.062Z,28.33
2019-04-06T07:34:32.084Z,30.57
2019-04-06T07:37:04.037Z,28.63
2019-04-06T07:39:36.005Z,29.67
2019-04-06T07:42:08.031Z,30.93
2019-04-06T07:44:40.034Z,30.07
2019-04-06T07:47:11.985Z,30.20
2019-04-06T07:49:46.233Z,29.63
2019-04-06T07:52:17.670Z,31.10
2019-04-06T07:54:49.726Z,30.87
2019-04-06T07:57:22.190Z,29.57
2019-04-06T07:59:54.205Z,30.57
2019-04-06T08:02:26.249Z,29.53
2019-04-06T08:04:58.277Z,28.97
2019-04-06T08:07:30.294Z,29.67
2019-04-06T08:10:02.327Z,29.07
2019-04-06T08:12:34.703Z,30.40
2019-04-06T08:15:08.350Z,30.80
2019-04-06T08:17:40.377Z,28.57
2019-04-06T08:20:12.485Z,29.27
2019-04-06T08:22:44.646Z,29.53
2019-04-06T08:25:16.691Z,29.47
2019-04-06T08:27:49.205Z,30.33
2019-04-06T08:30:21.308Z,29.13
2019-04-06T08:32:53.317Z,30.23
2019-04-06T08:35:26.590Z,28.87
2019-04-06T08:37:58.842Z,28.37
2019-04-06T08:40:31.095Z,30.27
2019-04-06T08:43:03.045Z,31.23
2019-04-06T08:45:35.198Z,31.87
2019-04-06T08:48:07.230Z,32.07
2019-04-06T08:50:39.170Z,32.20
2019-04-06T08:53:13.844Z,32.07
2019-04-06T08:55:46.284Z,31.33
2019-04-06T08:58:18.294Z,30.57
2019-04-06T09:00:50.282Z,31.13
2019-04-06T09:03:22.630Z,29.50
2019-04-06T09:05:54.863Z,31.70
2019-04-06T09:08:26.797Z,30.70
2019-04-06T09:10:58.768Z,31.13
2019-04-06T09:13:31.024Z,31.30
2019-04-06T09:16:03.969Z,30.80
2019-04-06T09:18:36.124Z,30.07
2019-04-06T09:21:08.109Z,30.80
2019-04-06T09:23:40.322Z,31.53
2019-04-06T09:26:12.303Z,29.83
2019-04-06T09:28:44.332Z,30.73
2019-04-06T09:31:16.810Z,30.70
2019-04-06T09:33:49.029Z,31.43
2019-04-06T09:36:21.095Z,28.70
2019-04-06T09:38:53.095Z,28.57
2019-04-06T09:41:26.530Z,28.93
2019-04-06T09:43:58.620Z,28.30
2019-04-06T09:46:48.155Z,28.40
2019-04-06T09:49:24.793Z,26.40
2019-04-06T09:52:04.648Z,27.63
2019-04-06T09:54:38.776Z,28.23
2019-04-06T09:57:12.450Z,26.73
2019-04-06T09:59:48.236Z,27.77
2019-04-06T10:02:24.651Z,26.67
2019-04-06T10:04:58.249Z,26.60
2019-04-06T10:07:40.927Z,25.63
2019-04-06T10:10:17.543Z,24.97
2019-04-06T10:12:54.115Z,24.80
2019-04-06T10:15:27.735Z,26.27
2019-04-06T10:18:10.335Z,26.33
2019-04-06T10:20:44.200Z,26.90
2019-04-06T10:23:17.865Z,26.30
2019-04-06T10:25:51.767Z,27.50
2019-04-06T10:28:25.372Z,27.40
2019-04-06T10:31:02.304Z,27.47
2019-04-06T10:33:36.323Z,27.30
2019-04-06T10:36:09.882Z,26.00
2019-04-06T10:38:59.889Z,26.37
2019-04-06T10:41:49.928Z,24.90
2019-04-06T10:44:23.541Z,25.27
2019-04-06T10:46:57.142Z,26.57
2019-04-06T10:49:30.748Z,26.70
2019-04-06T10:52:20.239Z,25.47
2019-04-06T10:55:05.376Z,23.27
2019-04-06T10:57:38.994Z,24.23
2019-04-06T11:00:29.452Z,23.57
2019-04-06T11:03:09.114Z,23.70
2019-04-06T11:05:42.705Z,22.80
2019-04-06T11:08:16.378Z,22.40
2019-04-06T11:10:50.236Z,23.27
2019-04-06T11:13:26.614Z,22.67
2019-04-06T11:16:00.214Z,23.73
2019-04-06T11:18:45.557Z,23.53
2019-04-06T11:21:21.937Z,22.33
2019-04-06T11:23:55.527Z,21.90
2019-04-06T11:26:31.909Z,21.47
2019-04-06T11:29:08.865Z,22.33
2019-04-06T11:31:45.241Z,22.67
2019-04-06T11:34:35.303Z,20.47
2019-04-06T11:37:21.416Z,20.23
2019-04-06T11:40:11.305Z,22.13
2019-04-06T11:42:47.596Z,23.23
2019-04-06T11:45:39.453Z,24.23
2019-04-06T11:48:25.195Z,24.10
2019-04-06T11:50:58.822Z,23.77
2019-04-06T11:53:32.425Z,23.40
2019-04-06T11:56:24.160Z,25.10
2019-04-06T11:58:58.098Z,24.70
2019-04-06T12:01:31.857Z,25.77
2019-04-06T12:04:14.545Z,23.73
2019-04-06T12:06:50.827Z,23.60
2019-04-06T12:09:42.643Z,24.23
2019-04-06T12:12:33.808Z,23.20
2019-04-06T12:15:11.638Z,23.70
2019-04-06T12:17:45.545Z,23.53
2019-04-06T12:20:19.641Z,23.87
2019-04-06T12:23:09.181Z,22.17
2019-04-06T12:25:43.770Z,21.27
2019-04-06T12:28:21.528Z,20.87
2019-04-06T12:30:58.187Z,21.80
2019-04-06T12:33:37.417Z,20.70
2019-04-06T12:36:29.325Z,19.63
2019-04-06T12:39:08.703Z,22.27
2019-04-06T12:41:45.230Z,21.53
2019-04-06T12:44:21.953Z,21.57
2019-04-06T12:46:58.600Z,20.27
2019-04-06T12:49:35.279Z,20.77
2019-04-06T12:52:08.834Z,20.83
2019-04-06T12:54:58.296Z,21.13
2019-04-06T12:57:35.062Z,21.80
2019-04-06T13:00:12.690Z,19.63
2019-04-06T13:02:58.592Z,19.57
2019-04-06T13:05:35.166Z,19.87
2019-04-06T13:08:20.565Z,22.10
2019-04-06T13:10:59.966Z,20.97
2019-04-06T13:13:49.524Z,21.93
2019-04-06T13:16:25.919Z,21.90
2019-04-06T13:19:07.462Z,24.70
2019-04-06T13:21:47.063Z,23.30
2019-04-06T13:24:26.326Z,23.10
2019-04-06T13:27:08.989Z,22.23
2019-04-06T13:29:42.581Z,22.47
2019-04-06T13:32:32.174Z,23.43
2019-04-06T13:35:06.913Z,21.87
2019-04-06T13:37:40.558Z,22.63
2019-04-06T13:40:14.669Z,24.60
2019-04-06T13:42:54.223Z,24.27
2019-04-06T13:45:36.927Z,24.13
2019-04-06T13:48:26.696Z,25.50
2019-04-06T13:51:09.210Z,24.57
2019-04-06T13:53:55.424Z,24.93
2019-04-06T13:56:35.272Z,24.60
2019-04-06T13:59:17.560Z,24.53
2019-04-06T14:02:07.095Z,26.43
2019-04-06T14:04:58.847Z,25.60
2019-04-06T14:07:35.117Z,25.70
2019-04-06T14:10:15.527Z,25.33
2019-04-06T14:13:05.364Z,25.30
2019-04-06T14:15:55.159Z,26.67
2019-04-06T14:18:31.402Z,27.77
2019-04-06T14:21:07.980Z,26.80
2019-04-06T14:23:41.937Z,25.03
2019-04-06T14:26:18.592Z,26.63
2019-04-06T14:28:55.106Z,27.57
2019-04-06T14:31:34.383Z,26.50
2019-04-06T14:34:10.885Z,26.53
2019-04-06T14:36:44.466Z,25.83
2019-04-06T14:39:24.003Z,27.30
2019-04-06T14:42:15.422Z,28.47
2019-04-06T14:44:54.939Z,26.97
2019-04-06T14:47:28.525Z,29.70
2019-04-06T14:50:10.923Z,29.40
2019-04-06T14:52:56.527Z,30.87
2019-04-06T14:55:30.142Z,28.90
2019-04-06T14:58:06.657Z,30.43
2019-04-06T15:00:43.228Z,30.07
2019-04-06T15:03:17.103Z,29.90
2019-04-06T15:05:56.661Z,27.83
2019-04-06T15:08:36.163Z,28.63
2019-04-06T15:11:21.862Z,32.07
2019-04-06T15:14:01.351Z,28.57
2019-04-06T15:16:51.034Z,27.53
2019-04-06T15:19:24.817Z,28.53
2019-04-06T15:22:13.982Z,28.73
2019-04-06T15:25:05.951Z,32.07
2019-04-06T15:27:48.282Z,29.20
2019-04-06T15:30:40.879Z,28.60
2019-04-06T15:33:27.066Z,27.23
2019-04-06T15:36:03.353Z,29.27
2019-04-06T15:38:55.163Z,31.10
2019-04-06T15:41:34.604Z,32.57
2019-04-06T15:44:16.756Z,30.60
2019-04-06T15:47:06.880Z,29.17
2019-04-06T15:49:49.505Z,28.97
2019-04-06T15:52:23.103Z,28.63
2019-04-06T15:54:59.451Z,28.80
2019-04-06T15:57:33.253Z,28.83
2019-04-06T16:00:11.358Z,26.77
2019-04-06T16:03:03.265Z,28.20
2019-04-06T16:05:36.899Z,27.60
2019-04-06T16:08:13.225Z,28.03
2019-04-06T16:11:02.523Z,27.30
2019-04-06T16:13:52.540Z,30.67
2019-04-06T16:16:43.779Z,29.30
2019-04-06T16:19:23.127Z,28.57
2019-04-06T16:22:12.627Z,28.47
2019-04-06T16:24:52.334Z,27.60
2019-04-06T16:27:29.120Z,26.27
2019-04-06T16:30:14.774Z,28.60
2019-04-06T16:33:08.725Z,27.90
2019-04-06T16:35:44.688Z,27.33
2019-04-06T16:38:18.287Z,27.90
2019-04-06T16:41:10.177Z,27.63
2019-04-06T16:43:59.935Z,28.87
2019-04-06T16:46:36.949Z,30.13
2019-04-06T16:49:28.353Z,28.97
2019-04-06T16:52:01.947Z,30.90
2019-04-06T16:54:35.593Z,28.10
2019-04-06T16:57:15.266Z,28.40
2019-04-06T16:59:54.856Z,26.30
2019-04-06T17:02:44.877Z,27.63
2019-04-06T17:05:18.605Z,26.80
2019-04-06T17:07:52.390Z,27.07
2019-04-06T17:10:32.192Z,27.73
2019-04-06T17:13:06.156Z,28.30
2019-04-06T17:15:43.683Z,29.50
2019-04-06T17:18:17.560Z,31.13
2019-04-06T17:21:09.574Z,27.43
2019-04-06T17:23:58.348Z,27.13
2019-04-06T17:26:43.769Z,27.30
2019-04-06T17:29:35.812Z,26.00
2019-04-06T17:32:34.778Z,29.90
2019-04-06T17:35:13.016Z,27.80
2019-04-06T17:37:46.626Z,28.07
2019-04-06T17:40:20.518Z,26.00
2019-04-06T17:42:54.365Z,26.77
2019-04-06T17:45:40.253Z,25.97
2019-04-06T17:48:29.884Z,26.50
2019-04-06T17:51:04.669Z,26.03
2019-04-06T17:53:41.095Z,27.23
2019-04-06T17:56:30.724Z,25.17
2019-04-06T17:59:04.322Z,23.60
2019-04-06T18:01:49.829Z,24.53
2019-04-06T18:04:26.570Z,25.10
2019-04-06T18:07:03.734Z,24.10
2019-04-06T18:09:37.372Z,26.17
2019-04-06T18:12:11.438Z,25.03
2019-04-06T18:14:43.396Z,26.20
2019-04-06T18:17:15.430Z,24.03
2019-04-06T18:19:47.392Z,24.67
2019-04-06T18:22:19.374Z,24.20
2019-04-06T18:24:51.522Z,25.37
2019-04-06T18:27:23.991Z,25.40
2019-04-06T18:29:56.690Z,25.40
2019-04-06T18:32:45.288Z,26.53
2019-04-06T18:35:17.277Z,27.07
2019-04-06T18:37:51.308Z,25.70
2019-04-06T18:40:24.882Z,25.23
2019-04-06T18:42:56.797Z,26.20
2019-04-06T18:45:30.229Z,25.57
2019-04-06T18:48:02.367Z,24.07
2019-04-06T18:50:38.293Z,24.70
2019-04-06T18:53:11.351Z,24.00
2019-04-06T18:55:42.680Z,24.53
2019-04-06T18:58:14.745Z,24.50
2019-04-06T19:00:46.913Z,23.77
2019-04-06T19:03:19.041Z,22.93
2019-04-06T19:05:51.266Z,23.47
2019-04-06T19:08:23.372Z,23.17
2019-04-06T19:10:56.629Z,22.73
2019-04-06T19:13:28.728Z,22.90
2019-04-06T19:16:01.222Z,23.73
2019-04-06T19:18:33.510Z,22.43
2019-04-06T19:21:05.757Z,23.63
2019-04-06T19:23:37.852Z,23.10
2019-04-06T19:26:09.949Z,23.77
2019-04-06T19:28:42.958Z,21.67
2019-04-06T19:31:15.145Z,82.80
2019-04-06T19:33:47.656Z,87.30
2019-04-06T19:36:19.691Z,26.13
2019-04-06T19:38:51.720Z,22.47
2019-04-06T19:41:23.690Z,23.27
2019-04-06T19:43:55.724Z,22.07
2019-04-06T19:46:27.692Z,22.47
2019-04-06T19:48:59.711Z,22.70
2019-04-06T19:51:32.026Z,21.43
2019-04-06T19:54:05.754Z,22.80
2019-04-06T19:56:38.062Z,22.23
2019-04-06T19:59:13.584Z,21.77
2019-04-06T20:01:45.844Z,21.70
2019-04-06T20:04:17.996Z,20.97
2019-04-06T20:06:50.539Z,22.50
2019-04-06T20:09:22.664Z,22.80
2019-04-06T20:12:04.819Z,21.67
2019-04-06T20:14:28.464Z,21.90
2019-04-06T20:17:00.433Z,22.27
2019-04-06T20:19:32.761Z,22.73
2019-04-06T20:22:05.701Z,22.10
2019-04-06T20:24:37.688Z,22.47
2019-04-06T20:27:09.631Z,21.30
2019-04-06T20:29:41.589Z,22.07
2019-04-06T20:32:13.616Z,21.53
2019-04-06T20:34:45.652Z,21.43
2019-04-06T20:37:17.607Z,21.83
2019-04-06T20:39:49.611Z,21.50
2019-04-06T20:42:22.423Z,22.67
2019-04-06T20:44:56.432Z,22.63
2019-04-06T20:47:28.946Z,21.73
2019-04-06T20:50:01.715Z,22.13
2019-04-06T20:52:34.306Z,22.60
2019-04-06T20:55:08.030Z,22.60
2019-04-06T20:57:40.545Z,21.17
2019-04-06T21:00:13.704Z,20.50
2019-04-06T21:02:46.081Z,21.50
2019-04-06T21:05:18.469Z,21.37
2019-04-06T21:07:50.779Z,21.57
2019-04-06T21:10:22.885Z,20.57
2019-04-06T21:12:55.367Z,21.03
2019-04-06T21:15:27.432Z,22.93
2019-04-06T21:17:59.922Z,22.63
2019-04-06T21:20:31.959Z,21.33
2019-04-06T21:23:03.930Z,22.37
2019-04-06T21:25:36.467Z,20.93
2019-04-06T21:28:08.877Z,21.77
2019-04-06T21:30:41.518Z,21.87
2019-04-06T21:33:14.407Z,20.83
2019-04-06T21:35:47.357Z,22.30
2019-04-06T21:38:19.421Z,21.83
2019-04-06T21:40:51.916Z,22.27
2019-04-06T21:43:24.601Z,23.60
2019-04-06T21:45:56.718Z,22.60
2019-04-06T21:48:28.738Z,22.57
2019-04-06T21:51:01.009Z,22.90
2019-04-06T21:53:32.988Z,22.67
2019-04-06T21:56:07.590Z,22.47
2019-04-06T21:58:39.233Z,21.90
2019-04-06T22:01:14.650Z,21.40
2019-04-06T22:03:47.380Z,22.20
2019-04-06T22:06:19.430Z,21.70
2019-04-06T22:08:51.473Z,21.93
2019-04-06T22:11:23.435Z,23.07
2019-04-06T22:13:55.670Z,21.27
2019-04-06T22:16:27.952Z,22.97
2019-04-06T22:19:00.109Z,25.03
2019-04-06T22:21:32.126Z,25.63
2019-04-06T22:24:04.662Z,24.50
2019-04-06T22:26:36.673Z,24.63
2019-04-06T22:29:09.174Z,24.30
2019-04-06T22:31:41.523Z,25.07
2019-04-06T22:34:13.576Z,24.13
2019-04-06T22:36:45.548Z,23.57
2019-04-06T22:39:17.565Z,22.77
2019-04-06T22:41:49.667Z,23.67
2019-04-06T22:44:22.197Z,22.37
2019-04-06T22:46:54.238Z,22.17
2019-04-06T22:49:26.245Z,23.63
2019-04-06T22:51:58.457Z,22.93
2019-04-06T22:54:30.815Z,24.17
2019-04-06T22:57:02.796Z,23.07
2019-04-06T22:59:34.799Z,22.40
2019-04-06T23:02:06.857Z,23.47
2019-04-06T23:04:47.800Z,23.63
2019-04-06T23:07:15.813Z,22.97
2019-04-06T23:09:48.336Z,22.43
2019-04-06T23:12:21.174Z,23.10
2019-04-06T23:14:53.817Z,24.10
2019-04-06T23:17:27.349Z,22.93
2019-04-06T23:19:59.265Z,22.63
2019-04-06T23:22:31.741Z,24.27
2019-04-06T23:25:04.039Z,22.57
2019-04-06T23:27:36.409Z,24.33
2019-04-06T23:30:09.004Z,23.47
2019-04-06T23:32:41.121Z,23.67
2019-04-06T23:35:13.167Z,26.00
2019-04-06T23:37:45.106Z,26.03
2019-04-06T23:40:17.671Z,26.13
2019-04-06T23:42:49.965Z,26.73
2019-04-06T23:45:21.998Z,26.07
2019-04-06T23:47:53.950Z,24.07
2019-04-06T23:50:26.402Z,25.20
2019-04-06T23:52:58.699Z,24.80
2019-04-06T23:55:30.637Z,25.30
2019-04-06T23:58:02.878Z,25.73
